KGCY/GCY METAR and TAF weather

Enter ICAO airport designator
Station Type Date Time Source
KGCY METAR 2019/10/23 03:15 UTC NOAA

KGCY 230315Z AUTO 20003KT 10SM CLR 10/05 A3002 RMK A01


Station Type Date Time Source
KGCY Decoded METAR 2019/10/23 03:15 UTC NOAA

Station name not available
Oct 22, 2019 - 11:15 PM EDT / 2019.10.23 0315 UTC
Wind: from the SSW (200 degrees) at 3 MPH (3 KT):0
Visibility: 10 mile(s):0
Sky conditions: clear
Temperature: 50 F (10 C)
Dew Point: 41 F (5 C)
Relative Humidity: 71%
Pressure (altimeter): 30.02 in. Hg (1016 hPa)
ob: KGCY 230315Z AUTO 20003KT 10SM CLR 10/05 A3002 RMK A01
cycle: 3

Station Type Date Time Source
KGCY TAF UTC NOAA

Error!

Example: see airport list